Time;durP1;ratioP1;P1;durP2;ratioP2;P2;SDS_P1;SDS_P2;PMS_P1;PMS_P2;Temp;Humidity;BMP_temperature;BMP_pressure;BME280_temperature;BME280_humidity;BME280_pressure;Samples;Min_cycle;Max_cycle;Signal;HPM_P1;HPM_P2
2022/06/16 00:00:14;;;;;;;;;;;13.60;99.90;;;;;;5031647;28;20289;-73
2022/06/16 00:02:40;;;;;;;;;;;13.60;99.90;;;;;;5039088;28;19960;-73
2022/06/16 00:05:06;;;;;;;;;;;13.50;99.90;;;;;;5013921;28;19918;-73
2022/06/16 00:07:31;;;;;;;;;;;13.40;99.90;;;;;;5014332;28;19924;-73
2022/06/16 00:09:57;;;;;;;;;;;13.40;99.90;;;;;;5014300;28;20293;-73
2022/06/16 00:12:22;;;;;;;;;;;13.40;99.90;;;;;;5023629;28;19917;-73
2022/06/16 00:14:48;;;;;;;;;;;13.40;99.90;;;;;;5012651;28;20437;-73
2022/06/16 00:17:13;;;;;;;;;;;13.30;99.90;;;;;;5028550;28;19924;-73
2022/06/16 00:19:39;;;;;;;;;;;13.30;99.90;;;;;;4982821;28;20266;-73
2022/06/16 00:22:04;;;;;;;;;;;13.30;99.90;;;;;;5030691;28;19957;-73
2022/06/16 00:24:30;;;;;;;;;;;13.40;99.90;;;;;;5032082;28;19918;-73
2022/06/16 00:26:56;;;;;;;;;;;13.30;99.90;;;;;;5048907;28;20415;-73
2022/06/16 00:29:23;;;;;;;;;;;13.30;99.90;;;;;;5013352;28;19918;-73
2022/06/16 00:31:48;;;;;;;;;;;13.30;99.90;;;;;;5012247;28;19996;-73
2022/06/16 00:34:13;;;;;;;;;;;13.40;99.90;;;;;;5041128;28;20024;-73
2022/06/16 00:36:39;;;;;;;;;;;13.40;99.90;;;;;;5046467;28;19921;-73
2022/06/16 00:39:05;;;;;;;;;;;13.40;99.90;;;;;;5013628;28;20408;-72
2022/06/16 00:41:30;;;;;;;;;;;13.30;99.90;;;;;;5015291;28;19917;-73
2022/06/16 00:44:00;;;;;;;;;;;13.20;99.90;;;;;;5031017;28;19968;-73
2022/06/16 00:46:28;;;;;;;;;;;13.10;99.90;;;;;;5015224;28;19941;-73
2022/06/16 00:48:58;;;;;;;;;;;13.20;99.90;;;;;;5036065;28;20270;-73
2022/06/16 00:51:44;;;;;;;;;;;13.10;99.90;;;;;;5031314;28;20485;-73
2022/06/16 00:54:10;;;;;;;;;;;13.00;99.90;;;;;;5015489;28;20392;-73
2022/06/16 00:56:36;;;;;;;;;;;13.00;99.90;;;;;;5011702;28;19922;-73
2022/06/16 00:59:03;;;;;;;;;;;12.90;99.90;;;;;;5011753;28;20358;-73
2022/06/16 01:01:29;;;;;;;;;;;12.80;99.90;;;;;;5028126;28;19921;-74
2022/06/16 01:06:40;;;;;;;;;;;12.90;99.90;;;;;;4996639;28;19917;-73
2022/06/16 01:09:13;;;;;;;;;;;12.80;99.90;;;;;;5011356;28;20449;-73
2022/06/16 01:14:48;;;;;;;;;;;13.00;99.90;;;;;;5030906;28;20004;-73
2022/06/16 01:17:23;;;;;;;;;;;13.00;99.90;;;;;;5042595;28;19924;-73
2022/06/16 01:19:58;;;;;;;;;;;12.90;99.90;;;;;;5047512;28;19961;-73
2022/06/16 01:22:37;;;;;;;;;;;12.80;99.90;;;;;;5047180;28;19918;-73
2022/06/16 01:25:16;;;;;;;;;;;12.70;99.90;;;;;;5045752;28;20055;-73
2022/06/16 01:27:57;;;;;;;;;;;12.60;99.90;;;;;;5027748;28;19949;-74
2022/06/16 01:30:36;;;;;;;;;;;12.60;99.90;;;;;;5011410;28;19980;-74
2022/06/16 01:33:16;;;;;;;;;;;12.50;99.90;;;;;;5021070;28;19917;-74
2022/06/16 01:35:44;;;;;;;;;;;12.60;99.90;;;;;;5027713;28;20012;-74
2022/06/16 01:38:29;;;;;;;;;;;12.70;99.90;;;;;;5046969;28;19969;-73
2022/06/16 01:41:03;;;;;;;;;;;12.70;99.90;;;;;;5046303;28;19968;-74
2022/06/16 01:43:31;;;;;;;;;;;12.70;99.90;;;;;;5013781;28;19947;-74
2022/06/16 01:45:57;;;;;;;;;;;12.70;99.90;;;;;;5029811;28;20020;-74
2022/06/16 01:48:23;;;;;;;;;;;12.70;99.90;;;;;;5030399;28;19921;-74
2022/06/16 01:50:52;;;;;;;;;;;12.80;99.90;;;;;;5032742;28;20365;-73
2022/06/16 01:53:21;;;;;;;;;;;12.70;99.90;;;;;;4996727;28;19929;-73
2022/06/16 01:55:52;;;;;;;;;;;12.70;99.90;;;;;;5021757;28;19984;-73
2022/06/16 01:58:23;;;;;;;;;;;12.70;99.90;;;;;;5006894;28;19924;-74
2022/06/16 02:00:50;;;;;;;;;;;12.70;99.90;;;;;;5025168;28;19917;-74
2022/06/16 02:03:30;;;;;;;;;;;12.70;99.90;;;;;;5013982;28;19925;-73
2022/06/16 02:05:58;;;;;;;;;;;12.70;99.90;;;;;;4996292;28;19917;-73
2022/06/16 02:08:46;;;;;;;;;;;12.60;99.90;;;;;;5037058;28;20016;-73
2022/06/16 02:11:23;;;;;;;;;;;12.50;99.90;;;;;;5026510;28;19925;-73
2022/06/16 02:13:53;;;;;;;;;;;12.50;99.90;;;;;;5015857;28;20425;-73
2022/06/16 02:16:24;;;;;;;;;;;12.30;99.90;;;;;;5006787;28;19964;-74
2022/06/16 02:18:51;;;;;;;;;;;12.20;99.90;;;;;;5029813;28;19918;-74
2022/06/16 02:21:32;;;;;;;;;;;12.10;99.90;;;;;;5041732;28;19927;-73
2022/06/16 02:23:57;;;;;;;;;;;12.10;99.90;;;;;;5044626;28;19925;-73
2022/06/16 02:26:24;;;;;;;;;;;12.20;99.90;;;;;;5015827;28;19918;-73
2022/06/16 02:28:50;;;;;;;;;;;12.30;99.90;;;;;;5026289;28;19917;-73
2022/06/16 02:31:28;;;;;;;;;;;12.30;99.90;;;;;;5009943;28;19918;-73
2022/06/16 02:34:13;;;;;;;;;;;12.40;99.90;;;;;;5037365;28;19940;-74
2022/06/16 02:36:48;;;;;;;;;;;12.30;99.90;;;;;;5026325;28;19922;-74
2022/06/16 02:39:17;;;;;;;;;;;12.30;99.90;;;;;;5010284;28;19918;-73
2022/06/16 02:42:01;;;;;;;;;;;12.30;99.90;;;;;;5012902;28;19971;-73
2022/06/16 02:44:46;;;;;;;;;;;12.40;99.90;;;;;;5011845;28;20393;-73
2022/06/16 02:47:15;;;;;;;;;;;12.30;99.90;;;;;;5010030;28;19964;-74
2022/06/16 02:49:46;;;;;;;;;;;12.20;99.90;;;;;;5021997;28;20440;-74
2022/06/16 02:52:33;;;;;;;;;;;12.00;99.90;;;;;;5020213;28;20369;-73
2022/06/16 02:55:05;;;;;;;;;;;11.90;99.90;;;;;;4994894;28;19948;-73
2022/06/16 02:57:48;;;;;;;;;;;11.90;99.90;;;;;;5030054;28;19917;-70
2022/06/16 03:00:18;;;;;;;;;;;11.80;99.90;;;;;;5018284;28;20381;-73
2022/06/16 03:02:43;;;;;;;;;;;11.80;99.90;;;;;;5028235;28;19917;-73
2022/06/16 03:05:10;;;;;;;;;;;12.00;99.90;;;;;;5046066;28;20328;-73
2022/06/16 03:07:36;;;;;;;;;;;12.00;99.90;;;;;;5044065;28;19924;-73
2022/06/16 03:10:02;;;;;;;;;;;12.00;99.90;;;;;;5012406;28;20352;-73
2022/06/16 03:12:28;;;;;;;;;;;12.10;99.90;;;;;;5012197;28;20290;-73
2022/06/16 03:14:53;;;;;;;;;;;12.10;99.90;;;;;;5012584;28;19921;-73
2022/06/16 03:17:19;;;;;;;;;;;12.10;99.90;;;;;;5011533;28;19917;-72
2022/06/16 03:19:44;;;;;;;;;;;12.20;99.90;;;;;;5011622;28;19917;-73
2022/06/16 03:22:10;;;;;;;;;;;12.20;99.90;;;;;;5011883;28;19918;-73
2022/06/16 03:24:36;;;;;;;;;;;12.20;99.90;;;;;;5012710;28;19961;-73
2022/06/16 03:27:02;;;;;;;;;;;12.10;99.90;;;;;;5045182;28;19921;-73
2022/06/16 03:29:27;;;;;;;;;;;12.10;99.90;;;;;;5012710;28;19921;-73
2022/06/16 03:31:53;;;;;;;;;;;12.10;99.90;;;;;;5011728;28;19918;-73
2022/06/16 03:34:18;;;;;;;;;;;12.20;99.90;;;;;;5013247;28;20366;-73
2022/06/16 03:36:44;;;;;;;;;;;12.20;99.90;;;;;;5039170;28;19944;-73
2022/06/16 03:39:09;;;;;;;;;;;12.20;99.90;;;;;;5011320;28;20011;-73
2022/06/16 03:41:35;;;;;;;;;;;12.10;99.90;;;;;;5011729;28;20301;-73
2022/06/16 03:44:01;;;;;;;;;;;12.00;99.90;;;;;;5015411;28;19925;-73
2022/06/16 03:46:26;;;;;;;;;;;12.00;99.90;;;;;;5009478;28;20443;-73
2022/06/16 03:48:52;;;;;;;;;;;12.00;99.90;;;;;;5023664;28;19917;-73
2022/06/16 03:51:18;;;;;;;;;;;12.00;99.90;;;;;;5009024;28;19924;-72
2022/06/16 03:53:45;;;;;;;;;;;12.00;99.90;;;;;;5038133;28;19973;-73
2022/06/16 03:56:11;;;;;;;;;;;12.00;99.90;;;;;;5039184;28;20378;-72
2022/06/16 03:58:37;;;;;;;;;;;12.10;99.90;;;;;;5043751;28;19944;-73
2022/06/16 04:01:02;;;;;;;;;;;12.20;99.90;;;;;;4995885;28;19917;-73
2022/06/16 04:06:12;;;;;;;;;;;12.20;99.90;;;;;;5041946;28;19917;-73
2022/06/16 04:08:39;;;;;;;;;;;12.30;99.90;;;;;;5012482;28;20012;-73
2022/06/16 04:11:26;;;;;;;;;;;12.20;99.90;;;;;;5045089;28;19948;-73
2022/06/16 04:13:50;;;;;;;;;;;12.10;99.90;;;;;;5039474;28;19917;-73
2022/06/16 04:16:16;;;;;;;;;;;12.20;99.90;;;;;;5045323;28;19927;-73
2022/06/16 04:18:41;;;;;;;;;;;12.10;99.90;;;;;;5010239;28;19964;-72
2022/06/16 04:21:08;;;;;;;;;;;12.10;99.90;;;;;;5048175;28;20008;-73
2022/06/16 04:23:34;;;;;;;;;;;12.10;99.90;;;;;;5026929;28;20386;-73
2022/06/16 04:25:59;;;;;;;;;;;12.20;99.90;;;;;;5015582;28;20028;-73
2022/06/16 04:28:25;;;;;;;;;;;12.20;99.90;;;;;;5031372;28;19975;-73
2022/06/16 04:30:50;;;;;;;;;;;12.30;99.90;;;;;;5014750;28;19917;-73
2022/06/16 04:33:16;;;;;;;;;;;12.30;99.90;;;;;;5008036;28;19922;-73
2022/06/16 04:35:41;;;;;;;;;;;12.40;99.90;;;;;;5012051;28;19922;-73
2022/06/16 04:38:07;;;;;;;;;;;12.40;99.90;;;;;;5030488;28;19918;-73
2022/06/16 04:40:32;;;;;;;;;;;12.50;99.90;;;;;;4995547;28;20398;-73
2022/06/16 04:42:58;;;;;;;;;;;12.60;99.90;;;;;;5008516;28;20012;-73
2022/06/16 04:45:24;;;;;;;;;;;12.60;99.90;;;;;;5025474;28;19917;-73
2022/06/16 04:47:49;;;;;;;;;;;12.60;99.90;;;;;;5030212;28;20361;-73
2022/06/16 04:50:18;;;;;;;;;;;12.70;99.90;;;;;;5044700;28;19917;-73
2022/06/16 04:52:45;;;;;;;;;;;12.80;99.90;;;;;;5045644;28;19944;-73
2022/06/16 04:55:11;;;;;;;;;;;12.90;99.90;;;;;;5031801;28;20290;-73
2022/06/16 04:57:36;;;;;;;;;;;12.90;99.90;;;;;;5013824;28;19921;-73
2022/06/16 05:00:02;;;;;;;;;;;12.90;99.90;;;;;;5029375;28;19943;-73
2022/06/16 05:02:28;;;;;;;;;;;13.10;99.90;;;;;;5031301;28;19989;-74
2022/06/16 05:04:53;;;;;;;;;;;13.20;99.90;;;;;;5029154;28;19921;-73
2022/06/16 05:07:19;;;;;;;;;;;13.30;99.90;;;;;;5014842;28;19925;-73
2022/06/16 05:09:44;;;;;;;;;;;13.40;99.90;;;;;;5014212;28;20358;-73
2022/06/16 05:12:10;;;;;;;;;;;13.50;99.90;;;;;;5046158;28;19924;-73
2022/06/16 05:14:35;;;;;;;;;;;13.50;99.90;;;;;;5029662;28;19917;-73
2022/06/16 05:17:01;;;;;;;;;;;13.50;99.90;;;;;;5030312;28;19924;-73
2022/06/16 05:19:30;;;;;;;;;;;13.60;99.90;;;;;;5047986;28;19983;-73
2022/06/16 05:21:56;;;;;;;;;;;13.70;99.90;;;;;;5030093;28;19976;-73
2022/06/16 05:24:21;;;;;;;;;;;13.70;99.90;;;;;;5004207;28;19999;-73
2022/06/16 05:26:47;;;;;;;;;;;13.70;99.90;;;;;;5046933;28;19921;-73
2022/06/16 05:29:12;;;;;;;;;;;13.80;99.90;;;;;;5030007;28;19917;-73
2022/06/16 05:31:38;;;;;;;;;;;13.80;99.90;;;;;;5046531;28;19917;-73
2022/06/16 05:34:03;;;;;;;;;;;13.90;99.90;;;;;;5002458;28;20012;-73
2022/06/16 05:36:29;;;;;;;;;;;14.00;99.90;;;;;;4994667;28;19929;-73
2022/06/16 05:38:54;;;;;;;;;;;14.00;99.90;;;;;;5032384;28;19921;-73
2022/06/16 05:41:21;;;;;;;;;;;14.00;99.90;;;;;;5019914;28;19960;-73
2022/06/16 05:43:46;;;;;;;;;;;14.10;99.90;;;;;;5029239;28;19917;-73
2022/06/16 05:46:16;;;;;;;;;;;14.10;99.90;;;;;;5014153;28;20292;-73
2022/06/16 05:48:42;;;;;;;;;;;14.20;99.90;;;;;;5004119;28;19918;-73
2022/06/16 05:51:09;;;;;;;;;;;14.30;99.90;;;;;;5028487;28;19928;-73
2022/06/16 05:53:35;;;;;;;;;;;14.30;99.90;;;;;;4999568;28;19964;-73
2022/06/16 05:56:00;;;;;;;;;;;14.40;99.90;;;;;;5047176;28;19921;-73
2022/06/16 05:58:26;;;;;;;;;;;14.50;99.90;;;;;;5045048;28;19963;-73
2022/06/16 06:00:51;;;;;;;;;;;14.50;99.90;;;;;;5028746;28;19956;-73
2022/06/16 06:03:17;;;;;;;;;;;14.60;99.90;;;;;;5024637;28;19918;-73
2022/06/16 06:05:42;;;;;;;;;;;14.70;99.90;;;;;;5039541;28;20320;-73
2022/06/16 06:16:29;;;;;;;;;;;15.30;99.90;;;;;;5010198;28;20312;-73
2022/06/16 06:18:56;;;;;;;;;;;15.50;99.90;;;;;;5019407;28;19965;-73
2022/06/16 06:24:06;;;;;;;;;;;15.80;99.90;;;;;;5013182;28;20348;-73
2022/06/16 06:26:32;;;;;;;;;;;15.90;99.90;;;;;;5029907;28;19996;-73
2022/06/16 06:28:58;;;;;;;;;;;16.00;99.90;;;;;;4998541;28;20473;-73
2022/06/16 06:31:23;;;;;;;;;;;16.20;99.90;;;;;;5011497;28;19921;-73
2022/06/16 06:33:49;;;;;;;;;;;16.20;99.90;;;;;;5044717;28;20011;-73
2022/06/16 06:36:14;;;;;;;;;;;16.40;99.90;;;;;;5045779;28;19928;-73
2022/06/16 06:38:40;;;;;;;;;;;16.50;99.90;;;;;;5027612;28;20413;-73
2022/06/16 06:41:06;;;;;;;;;;;16.50;99.90;;;;;;5010999;28;19929;-73
2022/06/16 06:43:32;;;;;;;;;;;16.70;99.90;;;;;;5029140;28;19917;-73
2022/06/16 06:45:57;;;;;;;;;;;16.80;99.90;;;;;;4994173;28;20390;-73
2022/06/16 06:48:23;;;;;;;;;;;16.80;99.90;;;;;;5027229;28;19921;-73
2022/06/16 06:50:48;;;;;;;;;;;16.90;99.90;;;;;;5041353;28;20008;-73
2022/06/16 06:53:14;;;;;;;;;;;17.10;99.90;;;;;;5028155;28;19924;-73
2022/06/16 06:55:41;;;;;;;;;;;17.20;99.90;;;;;;5029228;28;20369;-73
2022/06/16 06:58:07;;;;;;;;;;;17.20;99.90;;;;;;5044893;28;19921;-73
2022/06/16 07:00:32;;;;;;;;;;;17.40;99.90;;;;;;5011374;28;20012;-73
2022/06/16 07:02:58;;;;;;;;;;;17.40;99.90;;;;;;5011691;28;19917;-73
2022/06/16 07:05:23;;;;;;;;;;;17.40;99.90;;;;;;5011212;28;20004;-73
2022/06/16 07:07:50;;;;;;;;;;;17.40;99.90;;;;;;4984089;28;19918;-73
2022/06/16 07:10:16;;;;;;;;;;;17.60;99.90;;;;;;5028330;28;20449;-73
2022/06/16 07:12:42;;;;;;;;;;;17.50;99.90;;;;;;5028891;28;20012;-73
2022/06/16 07:15:07;;;;;;;;;;;17.70;99.90;;;;;;5031801;28;20001;-73
2022/06/16 07:17:33;;;;;;;;;;;17.70;99.90;;;;;;4989922;28;19917;-73
2022/06/16 07:19:58;;;;;;;;;;;17.60;99.90;;;;;;5025517;28;19943;-73
2022/06/16 07:22:24;;;;;;;;;;;17.70;99.90;;;;;;5020747;28;20389;-73
2022/06/16 07:24:49;;;;;;;;;;;17.70;99.90;;;;;;5044339;28;19917;-73
2022/06/16 07:27:16;;;;;;;;;;;17.80;99.90;;;;;;5017052;28;19917;-73
2022/06/16 07:29:41;;;;;;;;;;;17.70;99.90;;;;;;5028485;28;20002;-72
2022/06/16 07:32:07;;;;;;;;;;;17.90;99.90;;;;;;5043084;28;20318;-73
2022/06/16 07:34:33;;;;;;;;;;;18.00;99.90;;;;;;5028151;28;20007;-75
2022/06/16 07:36:58;;;;;;;;;;;18.00;99.90;;;;;;5003907;28;19925;-75
2022/06/16 07:39:24;;;;;;;;;;;18.00;99.90;;;;;;5045006;28;19941;-73
2022/06/16 07:41:49;;;;;;;;;;;18.10;99.90;;;;;;5044003;28;19926;-73
2022/06/16 07:44:16;;;;;;;;;;;18.00;99.90;;;;;;5044268;28;19918;-73
2022/06/16 07:46:42;;;;;;;;;;;18.10;99.90;;;;;;5027661;28;20011;-73
2022/06/16 07:49:09;;;;;;;;;;;18.20;99.90;;;;;;5015319;28;19925;-72
2022/06/16 07:51:35;;;;;;;;;;;18.20;99.90;;;;;;5008754;28;20025;-73
2022/06/16 07:54:01;;;;;;;;;;;18.30;99.90;;;;;;5002422;28;20008;-73
2022/06/16 07:56:26;;;;;;;;;;;18.40;99.90;;;;;;5032068;28;20297;-73
2022/06/16 07:58:51;;;;;;;;;;;18.50;99.90;;;;;;5031418;28;20020;-72
2022/06/16 08:01:17;;;;;;;;;;;18.60;99.90;;;;;;5031140;28;19917;-73
2022/06/16 08:03:43;;;;;;;;;;;18.60;99.90;;;;;;5009639;28;19917;-72
2022/06/16 08:06:11;;;;;;;;;;;18.60;99.90;;;;;;5012532;28;19922;-72
2022/06/16 08:08:37;;;;;;;;;;;18.60;99.90;;;;;;5029509;28;19970;-73
2022/06/16 08:11:02;;;;;;;;;;;18.70;99.90;;;;;;5026759;28;19929;-73
2022/06/16 08:13:28;;;;;;;;;;;18.80;99.90;;;;;;5045792;28;20373;-72
2022/06/16 08:15:54;;;;;;;;;;;18.80;99.90;;;;;;5014465;28;19943;-72
2022/06/16 08:18:20;;;;;;;;;;;18.90;99.90;;;;;;5027224;28;19924;-73
2022/06/16 08:20:46;;;;;;;;;;;18.90;99.90;;;;;;5024843;28;19967;-73
2022/06/16 08:23:12;;;;;;;;;;;18.90;99.90;;;;;;5000006;28;19961;-73
2022/06/16 08:25:38;;;;;;;;;;;18.90;99.90;;;;;;5048105;28;19996;-73
2022/06/16 08:28:04;;;;;;;;;;;19.10;99.90;;;;;;5047375;28;19924;-73
2022/06/16 08:30:30;;;;;;;;;;;19.10;99.90;;;;;;5031082;28;19921;-73
2022/06/16 08:32:56;;;;;;;;;;;19.20;99.90;;;;;;5030537;28;19924;-73
2022/06/16 08:35:22;;;;;;;;;;;19.50;99.90;;;;;;5021525;28;19922;-73
2022/06/16 08:37:47;;;;;;;;;;;19.40;99.90;;;;;;5006664;28;19925;-73
2022/06/16 08:40:14;;;;;;;;;;;19.50;99.90;;;;;;4999994;28;19921;-73
2022/06/16 08:42:54;;;;;;;;;;;19.60;99.90;;;;;;4992404;28;19996;-73
2022/06/16 08:45:24;;;;;;;;;;;19.60;99.00;;;;;;5044364;28;20334;-73
2022/06/16 08:47:52;;;;;;;;;;;19.60;99.90;;;;;;5046979;28;19967;-73
2022/06/16 08:50:22;;;;;;;;;;;19.70;99.90;;;;;;4994081;28;19940;-73
2022/06/16 08:53:06;;;;;;;;;;;19.70;99.90;;;;;;4995887;28;19918;-73
2022/06/16 08:55:38;;;;;;;;;;;19.80;99.90;;;;;;5004344;28;20025;-72
2022/06/16 08:58:06;;;;;;;;;;;19.80;99.90;;;;;;5013279;28;19918;-73
2022/06/16 09:00:42;;;;;;;;;;;19.90;99.90;;;;;;5000454;28;19972;-72
2022/06/16 09:03:19;;;;;;;;;;;20.00;99.90;;;;;;5031149;28;19926;-73
2022/06/16 09:06:04;;;;;;;;;;;19.90;99.90;;;;;;5027640;28;19918;-72
2022/06/16 09:08:41;;;;;;;;;;;19.80;99.90;;;;;;5021193;28;19917;-73
2022/06/16 09:11:13;;;;;;;;;;;20.10;99.90;;;;;;5049187;28;19924;-73
2022/06/16 09:13:42;;;;;;;;;;;20.20;99.90;;;;;;5014926;28;19917;-72
2022/06/16 09:16:31;;;;;;;;;;;20.30;99.90;;;;;;5046566;28;19936;-72
2022/06/16 09:19:16;;;;;;;;;;;20.40;99.90;;;;;;5025300;28;19944;-73
2022/06/16 09:21:50;;;;;;;;;;;20.40;99.90;;;;;;5030004;28;19925;-73
2022/06/16 09:24:21;;;;;;;;;;;20.50;99.90;;;;;;5027220;28;19918;-72
2022/06/16 09:27:05;;;;;;;;;;;20.50;99.90;;;;;;5022462;28;19930;-73
2022/06/16 09:29:31;;;;;;;;;;;20.60;99.90;;;;;;5046044;28;19924;-72
2022/06/16 09:31:56;;;;;;;;;;;20.60;99.90;;;;;;5020387;28;20344;-72
2022/06/16 09:34:25;;;;;;;;;;;20.70;99.90;;;;;;5012976;28;19918;-72
2022/06/16 09:36:53;;;;;;;;;;;20.60;99.90;;;;;;5027054;28;20378;-72
2022/06/16 09:39:28;;;;;;;;;;;20.80;99.90;;;;;;5009836;28;19959;-72
2022/06/16 09:44:57;;;;;;;;;;;20.90;99.90;;;;;;5046222;28;20321;-73
2022/06/16 09:47:26;;;;;;;;;;;21.00;99.90;;;;;;5044973;28;20016;-72
2022/06/16 09:49:57;;;;;;;;;;;21.10;99.70;;;;;;5012210;28;20004;-73
2022/06/16 09:52:43;;;;;;;;;;;21.10;99.90;;;;;;5045700;28;20621;-73
2022/06/16 09:55:14;;;;;;;;;;;21.20;99.90;;;;;;5044819;28;19992;-73
2022/06/16 09:57:45;;;;;;;;;;;21.20;99.90;;;;;;5043153;28;19917;-73
2022/06/16 10:00:13;;;;;;;;;;;21.30;99.90;;;;;;5013025;28;19924;-72
2022/06/16 10:02:47;;;;;;;;;;;21.30;99.90;;;;;;5010287;28;19960;-73
2022/06/16 10:05:25;;;;;;;;;;;21.40;99.90;;;;;;5028451;28;20366;-73
2022/06/16 10:07:56;;;;;;;;;;;21.50;99.90;;;;;;5044434;28;19917;-73
2022/06/16 10:10:31;;;;;;;;;;;21.60;99.90;;;;;;5043489;28;20406;-73
2022/06/16 10:13:03;;;;;;;;;;;21.60;99.90;;;;;;5035538;28;20281;-72
2022/06/16 10:15:36;;;;;;;;;;;21.50;99.90;;;;;;5020302;28;19922;-72
2022/06/16 10:18:02;;;;;;;;;;;21.70;99.90;;;;;;4994507;28;19924;-73
2022/06/16 10:20:28;;;;;;;;;;;21.80;99.90;;;;;;5011792;28;19917;-73
2022/06/16 10:23:00;;;;;;;;;;;21.80;96.00;;;;;;5009547;28;19924;-73
2022/06/16 10:25:28;;;;;;;;;;;21.80;99.10;;;;;;5046623;28;19917;-73
2022/06/16 10:27:58;;;;;;;;;;;21.80;99.90;;;;;;5000109;28;20018;-73
2022/06/16 10:30:25;;;;;;;;;;;21.80;99.90;;;;;;5014333;28;19921;-73
2022/06/16 10:32:58;;;;;;;;;;;22.00;99.90;;;;;;5027344;28;19926;-73
2022/06/16 10:35:24;;;;;;;;;;;22.00;99.70;;;;;;5024450;28;19921;-73
2022/06/16 10:37:51;;;;;;;;;;;21.90;98.80;;;;;;5008848;28;20366;-73
2022/06/16 10:40:26;;;;;;;;;;;22.00;97.80;;;;;;5001527;28;20036;-73
2022/06/16 10:42:54;;;;;;;;;;;22.00;99.60;;;;;;5010741;28;19932;-72
2022/06/16 10:45:31;;;;;;;;;;;22.00;97.50;;;;;;5009533;28;20415;-71
2022/06/16 10:47:56;;;;;;;;;;;22.10;99.00;;;;;;5007606;28;19924;-72
2022/06/16 10:50:21;;;;;;;;;;;22.00;98.00;;;;;;5007886;28;20332;-71
2022/06/16 10:52:50;;;;;;;;;;;22.20;99.90;;;;;;5040033;28;20000;-71
2022/06/16 10:55:18;;;;;;;;;;;22.20;99.80;;;;;;5019494;28;19960;-71
2022/06/16 10:57:46;;;;;;;;;;;22.10;95.90;;;;;;5026806;28;19963;-71
2022/06/16 11:00:17;;;;;;;;;;;22.10;98.10;;;;;;5027718;28;19921;-71
2022/06/16 11:02:55;;;;;;;;;;;22.00;97.40;;;;;;5011674;28;19987;-71
2022/06/16 11:05:20;;;;;;;;;;;22.10;99.90;;;;;;5012675;28;19924;-71
2022/06/16 11:07:46;;;;;;;;;;;22.20;99.90;;;;;;5018897;28;20012;-71
2022/06/16 11:10:16;;;;;;;;;;;22.30;99.90;;;;;;5045367;28;19917;-71
2022/06/16 11:12:46;;;;;;;;;;;22.00;97.80;;;;;;4995234;28;19917;-71
2022/06/16 11:15:17;;;;;;;;;;;22.00;96.10;;;;;;5007833;28;19976;-71
2022/06/16 11:17:47;;;;;;;;;;;22.10;98.80;;;;;;5025794;28;20419;-72
2022/06/16 11:20:16;;;;;;;;;;;22.20;98.70;;;;;;5025811;28;19918;-72
2022/06/16 11:22:44;;;;;;;;;;;22.20;99.30;;;;;;5011926;28;20310;-71
2022/06/16 11:25:17;;;;;;;;;;;22.20;94.10;;;;;;5010233;28;19923;-71
2022/06/16 11:27:54;;;;;;;;;;;22.30;97.10;;;;;;5044684;28;20255;-71
2022/06/16 11:30:31;;;;;;;;;;;22.40;97.30;;;;;;5012196;28;19918;-71
2022/06/16 11:32:57;;;;;;;;;;;22.10;94.30;;;;;;5030656;28;19921;-71
2022/06/16 11:35:27;;;;;;;;;;;22.30;95.90;;;;;;5048715;28;19921;-72
2022/06/16 11:37:57;;;;;;;;;;;22.10;97.40;;;;;;5048902;28;19917;-71
2022/06/16 11:40:40;;;;;;;;;;;22.00;97.20;;;;;;5032422;28;20012;-71
2022/06/16 11:43:27;;;;;;;;;;;22.10;95.40;;;;;;5032360;28;19925;-71
2022/06/16 11:46:14;;;;;;;;;;;22.00;95.30;;;;;;5026818;28;19925;-71
2022/06/16 11:48:45;;;;;;;;;;;22.00;94.10;;;;;;5026167;28;20016;-71
2022/06/16 11:51:14;;;;;;;;;;;22.10;97.00;;;;;;5045461;28;19939;-71
2022/06/16 11:53:59;;;;;;;;;;;22.30;94.00;;;;;;5006926;28;19924;-71
2022/06/16 11:56:32;;;;;;;;;;;22.30;93.70;;;;;;5048377;28;19948;-71
2022/06/16 11:59:19;;;;;;;;;;;22.30;95.50;;;;;;5031630;28;20205;-71
2022/06/16 12:01:46;;;;;;;;;;;22.30;97.00;;;;;;5030649;28;20048;-71
2022/06/16 12:04:35;;;;;;;;;;;22.20;97.10;;;;;;5049073;28;20404;-71
2022/06/16 12:07:10;;;;;;;;;;;22.40;97.50;;;;;;5032226;28;19917;-71
2022/06/16 12:09:41;;;;;;;;;;;22.40;97.50;;;;;;5047375;28;19924;-71
2022/06/16 12:12:28;;;;;;;;;;;22.40;97.90;;;;;;5048905;28;19925;-71
2022/06/16 12:15:13;;;;;;;;;;;22.40;96.30;;;;;;5015491;28;19917;-72
2022/06/16 12:17:39;;;;;;;;;;;22.40;97.70;;;;;;5048340;28;19952;-71
2022/06/16 12:20:04;;;;;;;;;;;22.30;93.40;;;;;;5015247;28;19918;-71
2022/06/16 12:22:50;;;;;;;;;;;22.30;96.60;;;;;;5015762;28;20007;-71
2022/06/16 12:25:21;;;;;;;;;;;22.30;96.80;;;;;;5047885;28;19924;-71
2022/06/16 12:27:51;;;;;;;;;;;22.20;97.00;;;;;;5048212;28;19921;-71
2022/06/16 12:30:23;;;;;;;;;;;22.30;96.30;;;;;;5048260;28;19925;-71
2022/06/16 12:32:49;;;;;;;;;;;22.40;96.70;;;;;;5031580;28;20286;-71
2022/06/16 12:35:32;;;;;;;;;;;22.40;96.90;;;;;;5031299;28;19936;-72
2022/06/16 12:38:17;;;;;;;;;;;22.40;96.50;;;;;;5047623;28;19967;-72
2022/06/16 12:40:45;;;;;;;;;;;22.40;96.70;;;;;;5013665;28;20382;-71
2022/06/16 12:43:20;;;;;;;;;;;22.60;98.20;;;;;;5046956;28;20481;-71
2022/06/16 12:45:53;;;;;;;;;;;22.50;97.70;;;;;;5047766;28;19917;-71
2022/06/16 12:48:22;;;;;;;;;;;22.40;93.50;;;;;;5031533;28;19964;-72
2022/06/16 12:51:08;;;;;;;;;;;22.30;92.20;;;;;;5014384;28;20416;-72
2022/06/16 12:53:38;;;;;;;;;;;22.10;92.40;;;;;;5047395;28;19918;-72
2022/06/16 12:56:07;;;;;;;;;;;22.00;94.00;;;;;;5014267;28;19928;-72
2022/06/16 12:58:34;;;;;;;;;;;22.10;97.20;;;;;;5048036;28;19971;-71
2022/06/16 13:01:03;;;;;;;;;;;22.20;98.40;;;;;;5030684;28;20396;-72
2022/06/16 13:03:55;;;;;;;;;;;22.10;97.20;;;;;;5030853;28;19917;-71
2022/06/16 13:06:21;;;;;;;;;;;22.00;95.30;;;;;;4997033;28;19971;-71
2022/06/16 13:08:50;;;;;;;;;;;22.00;94.90;;;;;;5014272;28;19921;-71
2022/06/16 13:11:18;;;;;;;;;;;22.00;94.50;;;;;;5002599;28;19918;-72
2022/06/16 13:13:46;;;;;;;;;;;22.10;96.20;;;;;;5031144;28;19917;-72
2022/06/16 13:16:14;;;;;;;;;;;22.00;96.20;;;;;;5014368;28;20301;-71
2022/06/16 13:19:06;;;;;;;;;;;22.00;97.20;;;;;;5030442;28;19917;-72
2022/06/16 13:21:35;;;;;;;;;;;22.00;98.20;;;;;;5044967;28;19917;-72
2022/06/16 13:24:07;;;;;;;;;;;22.00;97.60;;;;;;5014397;28;19924;-72
2022/06/16 13:26:38;;;;;;;;;;;22.10;97.60;;;;;;5045931;28;20023;-72
2022/06/16 13:29:06;;;;;;;;;;;22.00;97.30;;;;;;5029135;28;19921;-72
2022/06/16 13:31:50;;;;;;;;;;;22.00;97.80;;;;;;5047444;28;20428;-72
2022/06/16 13:34:15;;;;;;;;;;;22.00;98.40;;;;;;5013883;28;19964;-72
2022/06/16 13:36:41;;;;;;;;;;;22.00;98.50;;;;;;5046465;28;19921;-72
2022/06/16 13:39:08;;;;;;;;;;;22.00;98.50;;;;;;5029151;28;20405;-70
2022/06/16 13:42:00;;;;;;;;;;;22.00;97.60;;;;;;4993858;28;19944;-70
2022/06/16 13:44:26;;;;;;;;;;;22.00;95.50;;;;;;5037812;28;19924;-70
2022/06/16 13:46:57;;;;;;;;;;;22.10;96.90;;;;;;5003717;28;19979;-70
2022/06/16 13:49:28;;;;;;;;;;;22.10;97.20;;;;;;5046097;28;19924;-70
2022/06/16 13:52:04;;;;;;;;;;;22.10;96.80;;;;;;5042244;28;19925;-70
2022/06/16 13:54:31;;;;;;;;;;;22.10;95.60;;;;;;5029047;28;19952;-70
2022/06/16 13:56:57;;;;;;;;;;;22.10;95.00;;;;;;5033719;28;19925;-70
2022/06/16 13:59:24;;;;;;;;;;;22.10;97.40;;;;;;5028745;28;19918;-69
2022/06/16 14:02:01;;;;;;;;;;;22.10;99.00;;;;;;5009035;28;19936;-70
2022/06/16 14:04:27;;;;;;;;;;;22.10;97.50;;;;;;5027847;28;20572;-71
2022/06/16 14:07:09;;;;;;;;;;;22.30;98.50;;;;;;4995963;28;19971;-71
2022/06/16 14:09:39;;;;;;;;;;;22.20;98.40;;;;;;5025180;28;19921;-71
2022/06/16 14:12:04;;;;;;;;;;;22.20;98.80;;;;;;5032301;28;19920;-71
2022/06/16 14:14:48;;;;;;;;;;;22.00;95.60;;;;;;5019406;28;19917;-71
2022/06/16 14:17:29;;;;;;;;;;;21.90;95.10;;;;;;5004669;28;19984;-71
2022/06/16 14:19:56;;;;;;;;;;;22.00;96.00;;;;;;5023823;28;20366;-70
2022/06/16 14:22:22;;;;;;;;;;;22.00;96.20;;;;;;5011652;28;19983;-71
2022/06/16 14:25:02;;;;;;;;;;;22.00;97.00;;;;;;5026380;28;19917;-71
2022/06/16 14:27:31;;;;;;;;;;;22.00;97.40;;;;;;5025179;28;19924;-71
2022/06/16 14:29:58;;;;;;;;;;;21.90;95.00;;;;;;4992655;28;19926;-70
2022/06/16 14:32:26;;;;;;;;;;;22.00;98.10;;;;;;5031681;28;19964;-71
2022/06/16 14:35:04;;;;;;;;;;;22.00;96.40;;;;;;5023895;28;19917;-70
2022/06/16 14:37:48;;;;;;;;;;;22.10;98.60;;;;;;5024831;28;19960;-71
2022/06/16 14:40:21;;;;;;;;;;;22.10;99.10;;;;;;4974682;28;1042791;-70
2022/06/16 14:42:48;;;;;;;;;;;22.10;98.60;;;;;;5041400;28;19928;-71
2022/06/16 14:45:23;;;;;;;;;;;22.00;98.00;;;;;;4993222;28;19917;-70
2022/06/16 14:48:10;;;;;;;;;;;22.00;98.30;;;;;;5024187;28;20004;-70
2022/06/16 14:50:48;;;;;;;;;;;22.00;98.20;;;;;;5018503;28;19917;-70
2022/06/16 14:53:15;;;;;;;;;;;22.00;99.20;;;;;;5026636;28;20254;-70